sensor_id;sensor_type;location;lat;lon;timestamp;pressure;altitude;pressure_sealevel;temperature;humidity
28344;BME280;15597;50.914;6.638;2023-07-31T00:00:12;100466.97;;;23.57;48.84
28344;BME280;15597;50.914;6.638;2023-07-31T00:02:38;100468.81;;;23.57;48.49
28344;BME280;15597;50.914;6.638;2023-07-31T00:05:04;100472.94;;;23.61;48.63
28344;BME280;15597;50.914;6.638;2023-07-31T00:07:30;100459.81;;;23.58;48.48
28344;BME280;15597;50.914;6.638;2023-07-31T00:09:55;100465.16;;;23.58;48.71
28344;BME280;15597;50.914;6.638;2023-07-31T00:12:22;100468.56;;;23.60;48.87
28344;BME280;15597;50.914;6.638;2023-07-31T00:14:48;100466.00;;;23.58;48.59
28344;BME280;15597;50.914;6.638;2023-07-31T00:17:14;100463.47;;;23.57;48.35
28344;BME280;15597;50.914;6.638;2023-07-31T00:19:40;100462.00;;;23.53;48.87
28344;BME280;15597;50.914;6.638;2023-07-31T00:22:05;100464.44;;;23.56;48.48
28344;BME280;15597;50.914;6.638;2023-07-31T00:24:31;100460.31;;;23.52;48.34
28344;BME280;15597;50.914;6.638;2023-07-31T00:26:56;100458.59;;;23.51;49.00
28344;BME280;15597;50.914;6.638;2023-07-31T00:29:24;100454.25;;;23.49;48.83
28344;BME280;15597;50.914;6.638;2023-07-31T00:31:50;100470.13;;;23.51;49.02
28344;BME280;15597;50.914;6.638;2023-07-31T00:34:17;100460.78;;;23.45;48.86
28344;BME280;15597;50.914;6.638;2023-07-31T00:36:43;100462.72;;;23.43;48.92
28344;BME280;15597;50.914;6.638;2023-07-31T00:39:08;100458.59;;;23.39;48.76
28344;BME280;15597;50.914;6.638;2023-07-31T00:41:34;100459.56;;;23.38;48.86
28344;BME280;15597;50.914;6.638;2023-07-31T00:44:00;100461.50;;;23.36;48.76
28344;BME280;15597;50.914;6.638;2023-07-31T00:46:26;100462.69;;;23.32;49.01
28344;BME280;15597;50.914;6.638;2023-07-31T00:48:52;100458.31;;;23.31;48.95
28344;BME280;15597;50.914;6.638;2023-07-31T00:51:18;100463.91;;;23.28;48.93
28344;BME280;15597;50.914;6.638;2023-07-31T00:53:43;100458.31;;;23.31;48.97
28344;BME280;15597;50.914;6.638;2023-07-31T00:56:09;100456.75;;;23.28;48.99
28344;BME280;15597;50.914;6.638;2023-07-31T00:58:37;100448.75;;;23.28;48.92
28344;BME280;15597;50.914;6.638;2023-07-31T01:01:03;100440.00;;;23.26;49.06
28344;BME280;15597;50.914;6.638;2023-07-31T01:03:28;100441.81;;;23.26;48.96
28344;BME280;15597;50.914;6.638;2023-07-31T01:06:16;100430.84;;;23.17;49.28
28344;BME280;15597;50.914;6.638;2023-07-31T01:09:06;100436.19;;;23.17;49.19
28344;BME280;15597;50.914;6.638;2023-07-31T01:11:48;100443.22;;;23.18;49.14
28344;BME280;15597;50.914;6.638;2023-07-31T01:14:17;100429.63;;;23.22;49.00
28344;BME280;15597;50.914;6.638;2023-07-31T01:16:42;100418.00;;;23.23;48.80
28344;BME280;15597;50.914;6.638;2023-07-31T01:19:09;100411.19;;;23.18;48.88
28344;BME280;15597;50.914;6.638;2023-07-31T01:26:45;100424.19;;;23.23;48.70
28344;BME280;15597;50.914;6.638;2023-07-31T01:31:58;100419.47;;;23.27;48.76
28344;BME280;15597;50.914;6.638;2023-07-31T01:34:26;100416.09;;;23.25;48.71
28344;BME280;15597;50.914;6.638;2023-07-31T01:36:53;100414.38;;;23.24;49.05
28344;BME280;15597;50.914;6.638;2023-07-31T01:39:20;100419.72;;;23.24;48.78
28344;BME280;15597;50.914;6.638;2023-07-31T01:41:45;100425.06;;;23.24;49.22
28344;BME280;15597;50.914;6.638;2023-07-31T01:44:11;100407.31;;;23.23;49.06
28344;BME280;15597;50.914;6.638;2023-07-31T01:46:37;100412.66;;;23.23;48.78
28344;BME280;15597;50.914;6.638;2023-07-31T01:49:02;100399.31;;;23.23;48.62
28344;BME280;15597;50.914;6.638;2023-07-31T01:51:30;100405.31;;;23.26;48.82
28344;BME280;15597;50.914;6.638;2023-07-31T01:54:00;100403.47;;;23.27;48.77
28344;BME280;15597;50.914;6.638;2023-07-31T01:56:25;100402.84;;;23.23;48.88
28344;BME280;15597;50.914;6.638;2023-07-31T01:58:52;100402.84;;;23.23;48.80
28344;BME280;15597;50.914;6.638;2023-07-31T02:01:17;100407.09;;;23.26;48.89
28344;BME280;15597;50.914;6.638;2023-07-31T02:03:43;100408.81;;;23.27;49.12
28344;BME280;15597;50.914;6.638;2023-07-31T02:06:09;100406.13;;;23.27;48.74
28344;BME280;15597;50.914;6.638;2023-07-31T02:08:35;100407.72;;;23.29;48.79
28344;BME280;15597;50.914;6.638;2023-07-31T02:11:00;100403.97;;;23.32;48.96
28344;BME280;15597;50.914;6.638;2023-07-31T02:13:26;100395.94;;;23.32;48.61
28344;BME280;15597;50.914;6.638;2023-07-31T02:15:51;100397.69;;;23.33;48.64
28344;BME280;15597;50.914;6.638;2023-07-31T02:18:17;100392.09;;;23.36;48.72
28344;BME280;15597;50.914;6.638;2023-07-31T02:20:43;100381.66;;;23.33;48.49
28344;BME280;15597;50.914;6.638;2023-07-31T02:23:12;100379.94;;;23.32;48.44
28344;BME280;15597;50.914;6.638;2023-07-31T02:25:37;100388.81;;;23.32;48.67
28344;BME280;15597;50.914;6.638;2023-07-31T02:28:03;100375.94;;;23.26;48.68
28344;BME280;15597;50.914;6.638;2023-07-31T02:30:28;100377.75;;;23.26;48.63
28344;BME280;15597;50.914;6.638;2023-07-31T02:32:54;100380.19;;;23.29;48.37
28344;BME280;15597;50.914;6.638;2023-07-31T02:35:20;100381.88;;;23.30;48.59
28344;BME280;15597;50.914;6.638;2023-07-31T02:37:45;100370.38;;;23.29;48.90
28344;BME280;15597;50.914;6.638;2023-07-31T02:40:11;100373.28;;;23.26;48.44
28344;BME280;15597;50.914;6.638;2023-07-31T02:42:37;100376.16;;;23.23;48.77
28344;BME280;15597;50.914;6.638;2023-07-31T02:45:03;100371.69;;;23.24;48.80
28344;BME280;15597;50.914;6.638;2023-07-31T02:47:29;100364.41;;;23.26;48.44
28344;BME280;15597;50.914;6.638;2023-07-31T02:49:55;100367.56;;;23.31;48.36
28344;BME280;15597;50.914;6.638;2023-07-31T02:52:21;100369.25;;;23.32;48.19
28344;BME280;15597;50.914;6.638;2023-07-31T02:54:46;100367.78;;;23.28;48.38
28344;BME280;15597;50.914;6.638;2023-07-31T02:57:12;100363.56;;;23.25;48.56
28344;BME280;15597;50.914;6.638;2023-07-31T02:59:38;100359.78;;;23.28;48.44
28344;BME280;15597;50.914;6.638;2023-07-31T03:02:03;100355.66;;;23.24;48.48
28344;BME280;15597;50.914;6.638;2023-07-31T03:04:29;100353.94;;;23.23;48.72
28344;BME280;15597;50.914;6.638;2023-07-31T03:06:55;100359.28;;;23.23;48.40
28344;BME280;15597;50.914;6.638;2023-07-31T03:09:20;100347.66;;;23.24;48.42
28344;BME280;15597;50.914;6.638;2023-07-31T03:11:46;100350.09;;;23.27;48.20
28344;BME280;15597;50.914;6.638;2023-07-31T03:14:11;100353.00;;;23.24;48.32
28344;BME280;15597;50.914;6.638;2023-07-31T03:16:37;100358.53;;;23.20;48.14
28344;BME280;15597;50.914;6.638;2023-07-31T03:19:02;100361.00;;;23.24;48.01
28344;BME280;15597;50.914;6.638;2023-07-31T03:21:28;100359.28;;;23.23;48.24
28344;BME280;15597;50.914;6.638;2023-07-31T03:23:54;100351.50;;;23.19;48.86
28344;BME280;15597;50.914;6.638;2023-07-31T03:26:19;100354.06;;;23.21;48.66
28344;BME280;15597;50.914;6.638;2023-07-31T03:28:45;100351.06;;;23.26;48.57
28344;BME280;15597;50.914;6.638;2023-07-31T03:31:11;100352.91;;;23.25;48.44
28344;BME280;15597;50.914;6.638;2023-07-31T03:33:37;100351.19;;;23.24;48.54
28344;BME280;15597;50.914;6.638;2023-07-31T03:36:03;100343.25;;;23.23;48.83
28344;BME280;15597;50.914;6.638;2023-07-31T03:38:48;100342.19;;;23.14;48.64
28344;BME280;15597;50.914;6.638;2023-07-31T03:41:14;100339.88;;;23.20;48.48
28344;BME280;15597;50.914;6.638;2023-07-31T03:43:40;100332.59;;;23.23;48.39
28344;BME280;15597;50.914;6.638;2023-07-31T03:46:05;100335.19;;;23.24;48.47
28344;BME280;15597;50.914;6.638;2023-07-31T03:48:31;100321.19;;;23.20;48.59
28344;BME280;15597;50.914;6.638;2023-07-31T03:50:57;100326.31;;;23.24;48.15
28344;BME280;15597;50.914;6.638;2023-07-31T03:53:22;100330.44;;;23.28;48.42
28344;BME280;15597;50.914;6.638;2023-07-31T03:55:48;100330.19;;;23.31;48.09
28344;BME280;15597;50.914;6.638;2023-07-31T03:58:13;100320.25;;;23.33;48.63
28344;BME280;15597;50.914;6.638;2023-07-31T04:00:40;100320.75;;;23.38;48.29
28344;BME280;15597;50.914;6.638;2023-07-31T04:03:05;100318.81;;;23.40;48.40
28344;BME280;15597;50.914;6.638;2023-07-31T04:05:31;100323.91;;;23.43;48.12
28344;BME280;15597;50.914;6.638;2023-07-31T04:08:00;100323.91;;;23.43;48.06
28344;BME280;15597;50.914;6.638;2023-07-31T04:10:25;100311.63;;;23.41;48.05
28344;BME280;15597;50.914;6.638;2023-07-31T04:12:51;100309.81;;;23.41;48.14
28344;BME280;15597;50.914;6.638;2023-07-31T04:15:17;100313.47;;;23.40;48.08
28344;BME280;15597;50.914;6.638;2023-07-31T04:17:42;100310.06;;;23.38;48.00
28344;BME280;15597;50.914;6.638;2023-07-31T04:20:08;100304.00;;;23.36;47.82
28344;BME280;15597;50.914;6.638;2023-07-31T04:22:34;100299.38;;;23.38;47.91
28344;BME280;15597;50.914;6.638;2023-07-31T04:24:59;100297.69;;;23.37;48.07
28344;BME280;15597;50.914;6.638;2023-07-31T04:27:25;100297.94;;;23.34;48.13
28344;BME280;15597;50.914;6.638;2023-07-31T04:29:50;100300.81;;;23.31;48.29
28344;BME280;15597;50.914;6.638;2023-07-31T04:32:16;100300.09;;;23.29;48.09
28344;BME280;15597;50.914;6.638;2023-07-31T04:34:42;100300.72;;;23.32;48.07
28344;BME280;15597;50.914;6.638;2023-07-31T04:37:08;100298.16;;;23.31;48.20
28344;BME280;15597;50.914;6.638;2023-07-31T04:39:33;100304.84;;;23.25;48.22
28344;BME280;15597;50.914;6.638;2023-07-31T04:41:59;100311.00;;;23.26;48.34
28344;BME280;15597;50.914;6.638;2023-07-31T04:44:24;100303.97;;;23.25;48.25
28344;BME280;15597;50.914;6.638;2023-07-31T04:46:50;100305.69;;;23.26;48.55
28344;BME280;15597;50.914;6.638;2023-07-31T04:49:15;100301.53;;;23.22;48.63
28344;BME280;15597;50.914;6.638;2023-07-31T04:51:41;100293.31;;;23.25;48.21
28344;BME280;15597;50.914;6.638;2023-07-31T04:54:06;100296.09;;;23.23;48.45
28344;BME280;15597;50.914;6.638;2023-07-31T04:56:32;100303.97;;;23.25;48.38
28344;BME280;15597;50.914;6.638;2023-07-31T04:58:57;100293.31;;;23.25;48.11
28344;BME280;15597;50.914;6.638;2023-07-31T05:01:23;100290.53;;;23.26;48.22
28344;BME280;15597;50.914;6.638;2023-07-31T05:03:49;100283.34;;;23.27;48.10
28344;BME280;15597;50.914;6.638;2023-07-31T05:06:14;100283.25;;;23.28;48.07
28344;BME280;15597;50.914;6.638;2023-07-31T05:08:40;100286.66;;;23.30;47.98
28344;BME280;15597;50.914;6.638;2023-07-31T05:11:06;100267.47;;;23.25;47.86
28344;BME280;15597;50.914;6.638;2023-07-31T05:13:31;100277.03;;;23.28;48.18
28344;BME280;15597;50.914;6.638;2023-07-31T05:15:57;100271.72;;;23.28;48.05
28344;BME280;15597;50.914;6.638;2023-07-31T05:18:22;100279.47;;;23.31;48.02
28344;BME280;15597;50.914;6.638;2023-07-31T05:20:48;100273.66;;;23.26;48.08
28344;BME280;15597;50.914;6.638;2023-07-31T05:23:13;100272.56;;;23.28;48.44
28344;BME280;15597;50.914;6.638;2023-07-31T05:25:39;100257.78;;;23.24;48.02
28344;BME280;15597;50.914;6.638;2023-07-31T05:28:05;100255.09;;;23.24;48.21
28344;BME280;15597;50.914;6.638;2023-07-31T05:30:31;100252.50;;;23.23;48.16
28344;BME280;15597;50.914;6.638;2023-07-31T05:32:56;100253.38;;;23.23;48.02
28344;BME280;15597;50.914;6.638;2023-07-31T05:35:22;100249.84;;;23.23;48.29
28344;BME280;15597;50.914;6.638;2023-07-31T05:37:48;100247.19;;;23.23;48.31
28344;BME280;15597;50.914;6.638;2023-07-31T05:40:14;100232.28;;;23.20;48.40
28344;BME280;15597;50.914;6.638;2023-07-31T05:42:39;100227.78;;;23.20;48.32
28344;BME280;15597;50.914;6.638;2023-07-31T05:45:08;100228.03;;;23.17;48.18
28344;BME280;15597;50.914;6.638;2023-07-31T05:47:34;100228.63;;;23.21;48.49
28344;BME280;15597;50.914;6.638;2023-07-31T05:49:59;100220.72;;;23.19;48.39
28344;BME280;15597;50.914;6.638;2023-07-31T05:52:25;100225.81;;;23.23;48.18
28344;BME280;15597;50.914;6.638;2023-07-31T05:54:51;100223.53;;;23.18;48.28
28344;BME280;15597;50.914;6.638;2023-07-31T05:57:16;100222.94;;;23.14;48.49
28344;BME280;15597;50.914;6.638;2023-07-31T05:59:42;100225.97;;;23.10;48.78
28344;BME280;15597;50.914;6.638;2023-07-31T06:02:08;100228.91;;;23.07;48.80
28344;BME280;15597;50.914;6.638;2023-07-31T06:04:33;100234.34;;;23.05;48.75
28344;BME280;15597;50.914;6.638;2023-07-31T06:06:59;100221.00;;;23.05;48.79
28344;BME280;15597;50.914;6.638;2023-07-31T06:09:25;100222.84;;;23.04;49.40
28344;BME280;15597;50.914;6.638;2023-07-31T06:11:51;100220.53;;;23.00;49.11
28344;BME280;15597;50.914;6.638;2023-07-31T06:14:17;100224.16;;;22.99;49.35
28344;BME280;15597;50.914;6.638;2023-07-31T06:16:44;100222.72;;;22.95;49.56
28344;BME280;15597;50.914;6.638;2023-07-31T06:19:09;100210.34;;;22.94;49.40
28344;BME280;15597;50.914;6.638;2023-07-31T06:21:35;100214.47;;;22.98;49.22
28344;BME280;15597;50.914;6.638;2023-07-31T06:24:05;100209.84;;;23.00;49.47
28344;BME280;15597;50.914;6.638;2023-07-31T06:26:31;100207.31;;;22.98;49.85
28344;BME280;15597;50.914;6.638;2023-07-31T06:28:57;100213.50;;;22.99;49.51
28344;BME280;15597;50.914;6.638;2023-07-31T06:31:22;100207.06;;;23.01;49.24
28344;BME280;15597;50.914;6.638;2023-07-31T06:33:49;100216.38;;;23.07;49.46
28344;BME280;15597;50.914;6.638;2023-07-31T06:36:15;100211.78;;;23.09;49.03
28344;BME280;15597;50.914;6.638;2023-07-31T06:38:41;100221.22;;;23.13;48.90
28344;BME280;15597;50.914;6.638;2023-07-31T06:41:06;100221.72;;;23.18;49.04
28344;BME280;15597;50.914;6.638;2023-07-31T06:43:32;100213.13;;;23.15;48.98
28344;BME280;15597;50.914;6.638;2023-07-31T06:46:07;100216.75;;;23.14;48.89
28344;BME280;15597;50.914;6.638;2023-07-31T06:48:33;100214.56;;;23.19;49.05
28344;BME280;15597;50.914;6.638;2023-07-31T06:51:00;100205.44;;;23.22;49.28
28344;BME280;15597;50.914;6.638;2023-07-31T06:53:26;100196.72;;;23.19;49.14
28344;BME280;15597;50.914;6.638;2023-07-31T06:55:52;100207.28;;;23.21;48.80
28344;BME280;15597;50.914;6.638;2023-07-31T06:58:18;100205.34;;;23.23;49.15
28344;BME280;15597;50.914;6.638;2023-07-31T07:00:44;100199.38;;;23.19;48.95
28344;BME280;15597;50.914;6.638;2023-07-31T07:03:09;100195.03;;;23.18;49.06
28344;BME280;15597;50.914;6.638;2023-07-31T07:05:35;100201.09;;;23.20;49.02
28344;BME280;15597;50.914;6.638;2023-07-31T07:08:00;100197.69;;;23.18;48.77
28344;BME280;15597;50.914;6.638;2023-07-31T07:10:26;100202.78;;;23.22;48.95
28344;BME280;15597;50.914;6.638;2023-07-31T07:12:52;100199.13;;;23.23;48.92
28344;BME280;15597;50.914;6.638;2023-07-31T07:15:18;100195.53;;;23.24;48.76
28344;BME280;15597;50.914;6.638;2023-07-31T07:17:44;100211.28;;;23.27;48.62
28344;BME280;15597;50.914;6.638;2023-07-31T07:20:09;100201.47;;;23.27;49.01
28344;BME280;15597;50.914;6.638;2023-07-31T07:22:35;100208.50;;;23.28;48.47
28344;BME280;15597;50.914;6.638;2023-07-31T07:25:01;100206.19;;;23.24;48.41
28344;BME280;15597;50.914;6.638;2023-07-31T07:27:27;100213.13;;;23.26;48.73
28344;BME280;15597;50.914;6.638;2023-07-31T07:29:56;100206.09;;;23.25;48.74
28344;BME280;15597;50.914;6.638;2023-07-31T07:32:21;100198.31;;;23.22;48.88
28344;BME280;15597;50.914;6.638;2023-07-31T07:34:48;100202.31;;;23.28;48.78
28344;BME280;15597;50.914;6.638;2023-07-31T07:37:13;100198.91;;;23.26;48.47
28344;BME280;15597;50.914;6.638;2023-07-31T07:39:40;100212.00;;;23.29;48.86
28344;BME280;15597;50.914;6.638;2023-07-31T07:42:06;100207.66;;;23.28;49.10
28344;BME280;15597;50.914;6.638;2023-07-31T07:44:32;100207.91;;;23.25;48.79
28344;BME280;15597;50.914;6.638;2023-07-31T07:46:57;100214.94;;;23.26;49.05
28344;BME280;15597;50.914;6.638;2023-07-31T07:49:23;100205.22;;;23.25;49.20
28344;BME280;15597;50.914;6.638;2023-07-31T07:51:49;100205.22;;;23.25;49.66
28344;BME280;15597;50.914;6.638;2023-07-31T07:54:15;100196.97;;;23.28;49.20
28344;BME280;15597;50.914;6.638;2023-07-31T07:56:46;100202.31;;;23.28;48.82
28344;BME280;15597;50.914;6.638;2023-07-31T07:59:12;100192.84;;;23.24;49.04
28344;BME280;15597;50.914;6.638;2023-07-31T08:01:37;100197.34;;;23.23;49.30
28344;BME280;15597;50.914;6.638;2023-07-31T08:04:03;100192.34;;;23.30;49.10
28344;BME280;15597;50.914;6.638;2023-07-31T08:06:28;100187.75;;;23.32;48.87
28344;BME280;15597;50.914;6.638;2023-07-31T08:08:55;100180.34;;;23.36;48.55
28344;BME280;15597;50.914;6.638;2023-07-31T08:11:20;100186.41;;;23.38;49.31
28344;BME280;15597;50.914;6.638;2023-07-31T08:13:48;100175.72;;;23.38;49.28
28344;BME280;15597;50.914;6.638;2023-07-31T08:16:14;100169.56;;;23.37;49.12
28344;BME280;15597;50.914;6.638;2023-07-31T08:18:40;100177.41;;;23.39;48.74
28344;BME280;15597;50.914;6.638;2023-07-31T08:21:05;100169.56;;;23.37;49.12
28344;BME280;15597;50.914;6.638;2023-07-31T08:23:31;100158.25;;;23.33;48.72
28344;BME280;15597;50.914;6.638;2023-07-31T08:25:56;100163.25;;;23.38;48.91
28344;BME280;15597;50.914;6.638;2023-07-31T08:28:22;100160.56;;;23.38;48.65
28344;BME280;15597;50.914;6.638;2023-07-31T08:30:48;100156.91;;;23.39;49.16
28344;BME280;15597;50.914;6.638;2023-07-31T08:33:15;100157.50;;;23.43;48.78
28344;BME280;15597;50.914;6.638;2023-07-31T08:35:41;100161.63;;;23.47;48.79
28344;BME280;15597;50.914;6.638;2023-07-31T08:38:07;100160.63;;;23.48;48.76
28344;BME280;15597;50.914;6.638;2023-07-31T08:40:36;100160.88;;;23.45;48.96
28344;BME280;15597;50.914;6.638;2023-07-31T08:43:01;100168.78;;;23.46;48.80
28344;BME280;15597;50.914;6.638;2023-07-31T08:45:28;100162.00;;;23.42;48.73
28344;BME280;15597;50.914;6.638;2023-07-31T08:47:55;100164.78;;;23.41;48.69
28344;BME280;15597;50.914;6.638;2023-07-31T08:50:21;100164.78;;;23.41;48.63
28344;BME280;15597;50.914;6.638;2023-07-31T08:52:50;100166.75;;;23.39;48.42
28344;BME280;15597;50.914;6.638;2023-07-31T08:55:16;100161.78;;;23.34;48.58
28344;BME280;15597;50.914;6.638;2023-07-31T08:57:42;100176.94;;;23.33;48.53
28344;BME280;15597;50.914;6.638;2023-07-31T09:00:10;100173.66;;;23.30;48.97
28344;BME280;15597;50.914;6.638;2023-07-31T09:02:48;100158.16;;;23.24;48.87
28344;BME280;15597;50.914;6.638;2023-07-31T09:05:17;100171.97;;;23.29;48.81
28344;BME280;15597;50.914;6.638;2023-07-31T09:07:46;100158.78;;;23.27;48.77
28344;BME280;15597;50.914;6.638;2023-07-31T09:10:13;100161.28;;;23.29;48.92
28344;BME280;15597;50.914;6.638;2023-07-31T09:12:39;100153.28;;;23.29;48.83
28344;BME280;15597;50.914;6.638;2023-07-31T09:15:05;100169.56;;;23.26;49.24
28344;BME280;15597;50.914;6.638;2023-07-31T09:17:35;100168.59;;;23.27;49.04
28344;BME280;15597;50.914;6.638;2023-07-31T09:20:15;100161.19;;;23.19;49.26
28344;BME280;15597;50.914;6.638;2023-07-31T09:22:41;100159.84;;;23.25;49.23
28344;BME280;15597;50.914;6.638;2023-07-31T09:25:32;100160.31;;;23.18;49.42
28344;BME280;15597;50.914;6.638;2023-07-31T09:28:00;100155.97;;;23.29;49.73
28344;BME280;15597;50.914;6.638;2023-07-31T09:30:26;100148.19;;;23.26;49.80
28344;BME280;15597;50.914;6.638;2023-07-31T09:33:01;100135.00;;;23.24;49.35
28344;BME280;15597;50.914;6.638;2023-07-31T09:35:31;100140.09;;;23.27;49.82
28344;BME280;15597;50.914;6.638;2023-07-31T09:37:59;100137.03;;;23.32;49.87
28344;BME280;15597;50.914;6.638;2023-07-31T09:40:36;100146.00;;;23.31;49.53
28344;BME280;15597;50.914;6.638;2023-07-31T09:43:04;100145.28;;;23.40;49.20
28344;BME280;15597;50.914;6.638;2023-07-31T09:45:34;100129.97;;;23.42;49.36
28344;BME280;15597;50.914;6.638;2023-07-31T09:47:59;100133.94;;;23.48;49.27
28344;BME280;15597;50.914;6.638;2023-07-31T09:50:25;100119.34;;;23.52;48.74
28344;BME280;15597;50.914;6.638;2023-07-31T09:52:52;100128.94;;;23.55;48.68
28344;BME280;15597;50.914;6.638;2023-07-31T09:55:19;100119.97;;;23.56;48.86
28344;BME280;15597;50.914;6.638;2023-07-31T09:57:46;100114.63;;;23.56;48.65
28344;BME280;15597;50.914;6.638;2023-07-31T10:00:14;100118.25;;;23.55;48.59
28344;BME280;15597;50.914;6.638;2023-07-31T10:02:41;100124.31;;;23.57;49.00
28344;BME280;15597;50.914;6.638;2023-07-31T10:05:07;100128.44;;;23.61;48.52
28344;BME280;15597;50.914;6.638;2023-07-31T10:07:37;100124.78;;;23.62;49.08
28344;BME280;15597;50.914;6.638;2023-07-31T10:10:07;100117.22;;;23.67;48.32
28344;BME280;15597;50.914;6.638;2023-07-31T10:12:33;100122.41;;;23.69;48.35
28344;BME280;15597;50.914;6.638;2023-07-31T10:15:00;100129.34;;;23.71;48.67
28344;BME280;15597;50.914;6.638;2023-07-31T10:17:26;100115.00;;;23.72;48.71
28344;BME280;15597;50.914;6.638;2023-07-31T10:19:53;100119.22;;;23.75;48.81
28344;BME280;15597;50.914;6.638;2023-07-31T10:22:20;100117.41;;;23.75;48.47
28344;BME280;15597;50.914;6.638;2023-07-31T10:24:46;100114.75;;;23.75;48.66
28344;BME280;15597;50.914;6.638;2023-07-31T10:27:12;100117.88;;;23.81;48.61
28344;BME280;15597;50.914;6.638;2023-07-31T10:29:38;100118.72;;;23.81;48.81
28344;BME280;15597;50.914;6.638;2023-07-31T10:32:06;100121.25;;;23.83;48.85
28344;BME280;15597;50.914;6.638;2023-07-31T10:34:36;100119.56;;;23.82;48.52
28344;BME280;15597;50.914;6.638;2023-07-31T10:40:02;100123.47;;;23.77;49.19
28344;BME280;15597;50.914;6.638;2023-07-31T10:44:58;100134.16;;;23.77;48.89
28344;BME280;15597;50.914;6.638;2023-07-31T10:47:23;100131.88;;;23.73;49.05
28344;BME280;15597;50.914;6.638;2023-07-31T10:49:49;100124.72;;;23.73;49.01
28344;BME280;15597;50.914;6.638;2023-07-31T10:52:20;100122.88;;;23.74;49.38
28344;BME280;15597;50.914;6.638;2023-07-31T10:54:49;100131.50;;;23.77;49.25
28344;BME280;15597;50.914;6.638;2023-07-31T10:57:21;100122.03;;;23.73;49.80
28344;BME280;15597;50.914;6.638;2023-07-31T10:59:48;100128.31;;;23.84;49.54
28344;BME280;15597;50.914;6.638;2023-07-31T11:02:26;100102.81;;;23.80;49.82
28344;BME280;15597;50.914;6.638;2023-07-31T11:05:11;100102.50;;;23.73;49.21
28344;BME280;15597;50.914;6.638;2023-07-31T11:07:49;100088.31;;;23.72;49.53
28344;BME280;15597;50.914;6.638;2023-07-31T11:10:21;100094.81;;;23.80;49.50
28344;BME280;15597;50.914;6.638;2023-07-31T11:12:51;100102.31;;;23.86;49.74
28344;BME280;15597;50.914;6.638;2023-07-31T11:15:16;100085.56;;;23.84;49.85
28344;BME280;15597;50.914;6.638;2023-07-31T11:17:42;100084.47;;;23.86;49.72
28344;BME280;15597;50.914;6.638;2023-07-31T11:20:08;100085.28;;;23.87;49.19
28344;BME280;15597;50.914;6.638;2023-07-31T11:22:35;100091.81;;;23.94;50.06
28344;BME280;15597;50.914;6.638;2023-07-31T11:25:03;100105.59;;;23.99;49.66
28344;BME280;15597;50.914;6.638;2023-07-31T11:27:38;100091.31;;;24.00;49.36
28344;BME280;15597;50.914;6.638;2023-07-31T11:30:04;100097.81;;;24.07;49.13
28344;BME280;15597;50.914;6.638;2023-07-31T11:32:30;100096.13;;;24.06;48.99
28344;BME280;15597;50.914;6.638;2023-07-31T11:34:56;100086.13;;;24.09;49.04
28344;BME280;15597;50.914;6.638;2023-07-31T11:37:22;100093.88;;;24.12;49.32
28344;BME280;15597;50.914;6.638;2023-07-31T11:40:01;100080.06;;;24.06;49.10
28344;BME280;15597;50.914;6.638;2023-07-31T11:42:26;100070.53;;;24.14;49.20
28344;BME280;15597;50.914;6.638;2023-07-31T11:44:52;100077.31;;;24.18;48.69
28344;BME280;15597;50.914;6.638;2023-07-31T11:47:17;100080.69;;;24.20;48.79
28344;BME280;15597;50.914;6.638;2023-07-31T11:49:43;100080.69;;;24.20;48.76
28344;BME280;15597;50.914;6.638;2023-07-31T11:52:10;100085.22;;;24.19;48.79
28344;BME280;15597;50.914;6.638;2023-07-31T11:54:38;100082.13;;;24.24;48.64
28344;BME280;15597;50.914;6.638;2023-07-31T11:57:04;100080.88;;;24.28;48.54
28344;BME280;15597;50.914;6.638;2023-07-31T11:59:30;100084.41;;;24.29;48.63
28344;BME280;15597;50.914;6.638;2023-07-31T12:01:56;100077.22;;;24.29;48.64
28344;BME280;15597;50.914;6.638;2023-07-31T12:04:23;100084.25;;;24.30;48.71
28344;BME280;15597;50.914;6.638;2023-07-31T12:06:49;100078.19;;;24.28;48.73
28344;BME280;15597;50.914;6.638;2023-07-31T12:09:17;100078.91;;;24.30;48.83
28344;BME280;15597;50.914;6.638;2023-07-31T12:11:47;100083.28;;;24.31;49.00
28344;BME280;15597;50.914;6.638;2023-07-31T12:14:26;100075.41;;;24.30;48.63
28344;BME280;15597;50.914;6.638;2023-07-31T12:16:54;100075.13;;;24.33;49.28
28344;BME280;15597;50.914;6.638;2023-07-31T12:19:20;100088.34;;;24.34;48.98
28344;BME280;15597;50.914;6.638;2023-07-31T12:21:46;100076.56;;;24.37;48.84
28344;BME280;15597;50.914;6.638;2023-07-31T12:24:11;100079.34;;;24.35;48.81
28344;BME280;15597;50.914;6.638;2023-07-31T12:26:37;100074.97;;;24.34;49.10
28344;BME280;15597;50.914;6.638;2023-07-31T12:29:07;100072.31;;;24.34;48.90
28344;BME280;15597;50.914;6.638;2023-07-31T12:31:33;100069.78;;;24.33;49.24
28344;BME280;15597;50.914;6.638;2023-07-31T12:33:59;100070.63;;;24.33;48.88
28344;BME280;15597;50.914;6.638;2023-07-31T12:36:25;100064.56;;;24.31;49.48
28344;BME280;15597;50.914;6.638;2023-07-31T12:38:51;100066.97;;;24.34;49.23
28344;BME280;15597;50.914;6.638;2023-07-31T12:41:17;100073.72;;;24.39;48.92
28344;BME280;15597;50.914;6.638;2023-07-31T12:43:44;100061.63;;;24.34;48.77
28344;BME280;15597;50.914;6.638;2023-07-31T12:46:10;100066.97;;;24.34;48.86
28344;BME280;15597;50.914;6.638;2023-07-31T12:48:37;100061.63;;;24.34;49.41
28344;BME280;15597;50.914;6.638;2023-07-31T12:51:03;100068.53;;;24.37;49.04
28344;BME280;15597;50.914;6.638;2023-07-31T12:53:29;100063.91;;;24.39;49.16
28344;BME280;15597;50.914;6.638;2023-07-31T12:55:55;100054.91;;;24.40;48.98
28344;BME280;15597;50.914;6.638;2023-07-31T12:58:21;100057.28;;;24.43;48.71
28344;BME280;15597;50.914;6.638;2023-07-31T13:00:47;100043.38;;;24.40;48.71